createdAt,value
2022-10-23T03:00:47.633Z,7.30
2022-10-23T03:03:22.517Z,4.15
2022-10-23T03:05:49.846Z,3.50
2022-10-23T03:08:17.058Z,3.53
2022-10-23T03:10:44.425Z,3.23
2022-10-23T03:13:12.023Z,3.53
2022-10-23T03:15:39.274Z,3.70
2022-10-23T03:18:06.436Z,4.27
2022-10-23T03:20:33.699Z,3.60
2022-10-23T03:23:00.818Z,5.23
2022-10-23T03:25:28.542Z,6.73
2022-10-23T03:27:55.747Z,3.90
2022-10-23T03:30:22.853Z,3.50
2022-10-23T03:32:50.004Z,4.03
2022-10-23T03:35:17.283Z,4.10
2022-10-23T03:37:44.664Z,4.73
2022-10-23T03:40:12.116Z,3.60
2022-10-23T03:42:39.278Z,3.80
2022-10-23T03:45:06.796Z,3.95
2022-10-23T03:47:35.488Z,3.83
2022-10-23T03:50:02.618Z,3.90
2022-10-23T03:52:29.746Z,3.43
2022-10-23T03:54:56.885Z,2.83
2022-10-23T03:57:24.281Z,3.33
2022-10-23T03:59:51.622Z,5.33
2022-10-23T04:02:19.240Z,3.80
2022-10-23T04:04:46.417Z,4.00
2022-10-23T04:07:13.574Z,3.90
2022-10-23T04:09:40.788Z,3.77
2022-10-23T04:12:09.176Z,3.87
2022-10-23T04:14:36.476Z,3.90
2022-10-23T04:17:03.629Z,3.00
2022-10-23T04:19:31.153Z,3.90
2022-10-23T04:21:58.624Z,5.20
2022-10-23T04:24:25.998Z,3.47
2022-10-23T04:26:53.408Z,3.80
2022-10-23T04:29:22.953Z,3.70
2022-10-23T04:31:51.336Z,3.37
2022-10-23T04:34:19.231Z,3.72
2022-10-23T04:36:46.377Z,3.80
2022-10-23T04:39:14.573Z,3.77
2022-10-23T04:41:41.791Z,7.20
2022-10-23T04:44:08.944Z,3.60
2022-10-23T04:46:36.122Z,3.90
2022-10-23T04:49:03.273Z,3.73
2022-10-23T04:51:30.404Z,7.67
2022-10-23T04:53:57.517Z,4.47
2022-10-23T04:56:24.677Z,4.30
2022-10-23T04:58:52.525Z,3.93
2022-10-23T05:01:19.804Z,3.87
2022-10-23T05:03:47.091Z,5.17
2022-10-23T05:06:14.295Z,4.50
2022-10-23T05:08:41.400Z,5.60
2022-10-23T05:11:08.481Z,5.30
2022-10-23T05:13:35.914Z,6.80
2022-10-23T05:16:03.047Z,4.40
2022-10-23T05:18:35.584Z,5.27
2022-10-23T05:21:17.075Z,4.23
2022-10-23T05:23:45.552Z,6.47
2022-10-23T05:26:12.686Z,3.20
2022-10-23T05:28:39.939Z,3.70
2022-10-23T05:31:07.323Z,4.10
2022-10-23T05:33:35.904Z,5.87
2022-10-23T05:36:03.532Z,3.80
2022-10-23T05:38:33.609Z,4.47
2022-10-23T05:41:01.156Z,4.40
2022-10-23T05:43:31.118Z,5.20
2022-10-23T05:45:58.849Z,4.10
2022-10-23T05:48:40.871Z,5.03
2022-10-23T05:51:10.509Z,4.30
2022-10-23T05:53:40.306Z,7.27
2022-10-23T05:56:09.910Z,3.57
2022-10-23T05:58:37.100Z,4.40
2022-10-23T06:01:09.701Z,4.90
2022-10-23T06:03:38.002Z,6.67
2022-10-23T06:06:06.545Z,4.87
2022-10-23T06:08:34.361Z,5.20
2022-10-23T06:11:12.649Z,5.60
2022-10-23T06:13:39.965Z,7.20
2022-10-23T06:16:19.412Z,4.60
2022-10-23T06:18:47.421Z,4.70
2022-10-23T06:21:15.026Z,4.83
2022-10-23T06:23:43.573Z,7.32
2022-10-23T06:26:13.208Z,5.40
2022-10-23T06:28:41.208Z,5.43
2022-10-23T06:31:10.557Z,5.77
2022-10-23T06:33:37.949Z,8.47
2022-10-23T06:36:06.050Z,6.37
2022-10-23T06:38:37.590Z,7.17
2022-10-23T06:41:05.780Z,4.70
2022-10-23T06:43:32.914Z,6.75
2022-10-23T06:46:04.381Z,6.33
2022-10-23T06:48:31.950Z,7.18
2022-10-23T06:50:59.997Z,7.32
2022-10-23T06:53:27.855Z,6.63
2022-10-23T06:56:00.366Z,7.67
2022-10-23T06:58:27.668Z,4.50
2022-10-23T07:00:55.207Z,6.37
2022-10-23T07:03:22.646Z,6.40
2022-10-23T07:05:49.823Z,5.80
2022-10-23T07:08:17.163Z,6.88
2022-10-23T07:10:44.371Z,5.30
2022-10-23T07:13:12.353Z,5.63
2022-10-23T07:15:39.790Z,7.97
2022-10-23T07:18:06.963Z,7.70
2022-10-23T07:20:34.343Z,5.28
2022-10-23T07:23:01.583Z,6.50
2022-10-23T07:25:28.731Z,6.13
2022-10-23T07:27:56.583Z,5.53
2022-10-23T07:30:24.468Z,7.20
2022-10-23T07:32:51.670Z,6.90
2022-10-23T07:35:19.056Z,5.78
2022-10-23T07:37:46.385Z,6.20
2022-10-23T07:40:13.681Z,6.20
2022-10-23T07:42:40.789Z,9.00
2022-10-23T07:45:08.735Z,8.27
2022-10-23T07:47:35.890Z,7.00
2022-10-23T07:50:03.185Z,6.20
2022-10-23T07:52:33.464Z,7.35
2022-10-23T07:55:03.271Z,6.22
2022-10-23T07:57:30.481Z,6.50
2022-10-23T07:59:57.706Z,6.30
2022-10-23T08:02:24.905Z,5.88
2022-10-23T08:04:52.107Z,6.45
2022-10-23T08:07:19.301Z,5.60
2022-10-23T08:09:46.468Z,6.32
2022-10-23T08:12:13.712Z,7.00
2022-10-23T08:14:40.924Z,6.13
2022-10-23T08:17:09.835Z,5.40
2022-10-23T08:19:37.372Z,5.90
2022-10-23T08:22:04.572Z,6.80
2022-10-23T08:24:31.755Z,6.70
2022-10-23T08:26:59.386Z,6.15
2022-10-23T08:29:26.570Z,6.43
2022-10-23T08:31:56.270Z,6.30
2022-10-23T08:34:24.057Z,5.40
2022-10-23T08:36:51.466Z,5.05
2022-10-23T08:39:18.601Z,4.15
2022-10-23T08:41:51.495Z,3.60
2022-10-23T08:44:21.663Z,4.53
2022-10-23T08:47:14.369Z,3.90
2022-10-23T08:50:12.437Z,4.88
2022-10-23T08:52:47.167Z,4.40
2022-10-23T08:55:23.894Z,3.78
2022-10-23T08:58:15.908Z,4.00
2022-10-23T09:00:44.427Z,3.92
2022-10-23T09:03:13.217Z,3.70
2022-10-23T09:06:15.309Z,3.33
2022-10-23T09:08:59.315Z,3.30
2022-10-23T09:11:32.499Z,3.03
2022-10-23T09:14:25.064Z,2.97
2022-10-23T09:17:07.271Z,2.30
2022-10-23T09:19:34.487Z,2.40
2022-10-23T09:22:01.848Z,2.80
2022-10-23T09:24:31.716Z,2.40
2022-10-23T09:27:00.398Z,2.30
2022-10-23T09:29:30.212Z,2.40
2022-10-23T09:31:59.941Z,2.25
2022-10-23T09:34:33.184Z,2.67
2022-10-23T09:37:17.330Z,2.60
2022-10-23T09:39:44.441Z,2.17
2022-10-23T09:42:25.407Z,2.10
2022-10-23T09:44:54.904Z,2.45
2022-10-23T09:47:24.371Z,2.25
2022-10-23T09:49:53.860Z,2.35
2022-10-23T09:52:29.985Z,2.20
2022-10-23T09:55:00.383Z,2.10
2022-10-23T09:57:30.126Z,1.80
2022-10-23T10:00:19.569Z,2.20
2022-10-23T10:02:55.581Z,2.20
2022-10-23T10:05:29.965Z,2.20
2022-10-23T10:08:14.015Z,2.05
2022-10-23T10:10:46.992Z,1.98
2022-10-23T10:13:34.100Z,1.95
2022-10-23T10:16:21.089Z,2.13
2022-10-23T10:19:03.587Z,2.00
2022-10-23T10:21:49.032Z,1.85
2022-10-23T10:24:19.005Z,2.40
2022-10-23T10:27:03.908Z,2.30
2022-10-23T10:29:39.625Z,2.10
2022-10-23T10:32:21.531Z,2.40
2022-10-23T10:35:05.885Z,2.20
2022-10-23T10:38:08.552Z,2.10
2022-10-23T10:40:41.169Z,2.05
2022-10-23T10:43:21.426Z,2.08
2022-10-23T10:45:52.214Z,2.42
2022-10-23T10:48:19.308Z,1.67
2022-10-23T10:51:27.986Z,2.08
2022-10-23T10:54:03.809Z,2.80
2022-10-23T10:56:35.265Z,2.22
2022-10-23T10:59:24.401Z,2.17
2022-10-23T11:02:11.045Z,2.10
2022-10-23T11:05:05.965Z,1.90
2022-10-23T11:07:39.598Z,2.35
2022-10-23T11:10:16.732Z,1.90
2022-10-23T11:12:46.217Z,2.38
2022-10-23T11:15:20.761Z,2.10
2022-10-23T11:17:56.662Z,1.88
2022-10-23T11:20:56.795Z,2.00
2022-10-23T11:23:54.978Z,1.98
2022-10-23T11:26:33.828Z,2.00
2022-10-23T11:29:32.463Z,1.55
2022-10-23T11:32:14.369Z,1.90
2022-10-23T11:34:53.430Z,1.65
2022-10-23T11:37:22.115Z,2.00
2022-10-23T11:40:23.520Z,1.83
2022-10-23T11:42:51.681Z,1.67
2022-10-23T11:45:27.784Z,1.85
2022-10-23T11:48:01.630Z,1.80
2022-10-23T11:50:52.151Z,1.75
2022-10-23T11:53:39.651Z,1.80
2022-10-23T11:56:12.637Z,1.70
2022-10-23T11:58:46.868Z,1.70
2022-10-23T12:01:24.599Z,1.90
2022-10-23T12:03:56.491Z,1.70
2022-10-23T12:06:48.196Z,1.63
2022-10-23T12:09:43.956Z,1.75
2022-10-23T12:12:11.036Z,1.70
2022-10-23T12:14:50.671Z,1.50
2022-10-23T12:17:23.588Z,1.67
2022-10-23T12:20:19.467Z,1.80
2022-10-23T12:23:17.261Z,1.80
2022-10-23T12:25:44.340Z,1.50
2022-10-23T12:28:51.953Z,1.70
2022-10-23T12:31:19.072Z,1.30
2022-10-23T12:34:00.651Z,1.80
2022-10-23T12:36:47.907Z,1.60
2022-10-23T12:39:29.842Z,1.48
2022-10-23T12:41:58.851Z,1.40
2022-10-23T12:44:27.086Z,1.60
2022-10-23T12:47:02.181Z,1.50
2022-10-23T12:49:33.449Z,1.58
2022-10-23T12:52:05.673Z,1.52
2022-10-23T12:54:38.346Z,1.50
2022-10-23T12:57:28.118Z,1.60
2022-10-23T13:00:10.263Z,1.60
2022-10-23T13:02:37.512Z,1.52
2022-10-23T13:05:13.148Z,1.50
2022-10-23T13:07:46.263Z,1.30
2022-10-23T13:10:19.658Z,1.40
2022-10-23T13:12:55.724Z,1.55
2022-10-23T13:15:23.954Z,1.40
2022-10-23T13:17:53.829Z,1.55
2022-10-23T13:20:28.067Z,1.60
2022-10-23T13:23:16.400Z,1.60
2022-10-23T13:25:52.278Z,1.38
2022-10-23T13:28:30.039Z,1.38
2022-10-23T13:31:14.781Z,1.30
2022-10-23T13:33:46.060Z,1.42
2022-10-23T13:36:17.329Z,1.30
2022-10-23T13:39:03.696Z,1.40
2022-10-23T13:41:40.712Z,1.40
2022-10-23T13:44:09.475Z,1.50
2022-10-23T13:46:36.621Z,1.52
2022-10-23T13:49:03.759Z,1.70
2022-10-23T13:52:02.356Z,2.20
2022-10-23T13:54:30.104Z,1.80
2022-10-23T13:56:57.361Z,1.80
2022-10-23T13:59:24.680Z,1.80
2022-10-23T14:01:52.466Z,1.60
2022-10-23T14:04:20.125Z,1.92
2022-10-23T14:06:47.970Z,1.88
2022-10-23T14:09:18.709Z,2.00
2022-10-23T14:11:46.135Z,2.28
2022-10-23T14:14:13.268Z,2.00
2022-10-23T14:16:42.929Z,1.70
2022-10-23T14:19:11.066Z,1.85
2022-10-23T14:21:38.265Z,1.83
2022-10-23T14:24:05.714Z,2.03
2022-10-23T14:26:32.950Z,1.60
2022-10-23T14:29:04.151Z,1.70
2022-10-23T14:31:35.593Z,1.70
2022-10-23T14:34:02.827Z,1.95
2022-10-23T14:36:38.697Z,2.03
2022-10-23T14:39:17.191Z,3.75
2022-10-23T14:41:46.540Z,5.05
2022-10-23T14:44:13.980Z,4.20
2022-10-23T14:46:43.925Z,4.25
2022-10-23T14:49:11.075Z,3.35
2022-10-23T14:51:38.439Z,3.55
2022-10-23T14:54:07.838Z,3.15
2022-10-23T14:56:37.947Z,3.33
2022-10-23T14:59:05.332Z,2.33
2022-10-23T15:01:35.167Z,2.20
2022-10-23T15:04:02.403Z,2.00
2022-10-23T15:06:29.960Z,1.70
2022-10-23T15:08:57.280Z,2.20
2022-10-23T15:11:25.659Z,2.22
2022-10-23T15:13:54.675Z,2.50
2022-10-23T15:16:23.482Z,3.67
2022-10-23T15:18:51.365Z,3.20
2022-10-23T15:21:18.820Z,3.47
2022-10-23T15:23:46.633Z,5.60
2022-10-23T15:26:20.840Z,4.05
2022-10-23T15:29:00.029Z,3.85
2022-10-23T15:31:29.888Z,4.30
2022-10-23T15:34:00.174Z,3.83
2022-10-23T15:36:27.400Z,4.18
2022-10-23T15:38:54.515Z,3.70
2022-10-23T15:41:29.172Z,3.97
2022-10-23T15:43:57.692Z,3.90
2022-10-23T15:46:24.845Z,2.65
2022-10-23T15:48:52.473Z,3.58
2022-10-23T15:51:20.327Z,3.67
2022-10-23T15:53:47.736Z,5.03
2022-10-23T15:56:14.941Z,3.20
2022-10-23T15:58:42.126Z,4.05
2022-10-23T16:01:09.417Z,8.10
2022-10-23T16:03:37.994Z,19.05
2022-10-23T16:06:07.697Z,15.23
2022-10-23T16:08:35.370Z,13.98
2022-10-23T16:11:04.047Z,10.38
2022-10-23T16:13:31.183Z,8.13
2022-10-23T16:16:03.303Z,5.35
2022-10-23T16:18:30.504Z,4.30
2022-10-23T16:20:57.680Z,4.10
2022-10-23T16:23:24.820Z,6.22
2022-10-23T16:25:51.984Z,6.28
2022-10-23T16:28:19.176Z,2.97
2022-10-23T16:30:46.479Z,4.13
2022-10-23T16:33:13.764Z,4.63
2022-10-23T16:35:41.377Z,9.73
2022-10-23T16:38:08.427Z,10.25
2022-10-23T16:40:35.569Z,7.35
2022-10-23T16:43:03.075Z,6.18
2022-10-23T16:45:33.271Z,7.70
2022-10-23T16:48:03.297Z,6.85
2022-10-23T16:50:30.807Z,17.38
2022-10-23T16:52:57.883Z,11.50
2022-10-23T16:55:25.059Z,9.45
2022-10-23T16:57:52.190Z,8.10
2022-10-23T17:00:21.991Z,6.10
2022-10-23T17:02:49.230Z,4.63
2022-10-23T17:05:16.504Z,6.13
2022-10-23T17:07:43.809Z,22.17
2022-10-23T17:10:11.131Z,7.90
2022-10-23T17:12:38.280Z,11.52
2022-10-23T17:15:06.066Z,11.10
2022-10-23T17:17:33.202Z,25.02
2022-10-23T17:20:00.392Z,10.77
2022-10-23T17:22:27.801Z,16.00
2022-10-23T17:24:54.947Z,15.90
2022-10-23T17:27:22.070Z,12.27
2022-10-23T17:29:49.262Z,12.45
2022-10-23T17:32:16.551Z,13.70
2022-10-23T17:34:43.779Z,17.35
2022-10-23T17:37:13.249Z,14.52
2022-10-23T17:39:41.007Z,20.13
2022-10-23T17:42:08.314Z,21.17
2022-10-23T17:44:36.416Z,18.55
2022-10-23T17:47:03.611Z,18.20
2022-10-23T17:49:30.799Z,18.83
2022-10-23T17:51:58.246Z,19.05
2022-10-23T17:54:26.658Z,19.10
2022-10-23T17:56:54.207Z,21.60
2022-10-23T17:59:21.477Z,20.38
2022-10-23T18:01:49.012Z,21.15
2022-10-23T18:04:19.146Z,17.33
2022-10-23T18:06:52.849Z,14.95
2022-10-23T18:09:21.843Z,16.80
2022-10-23T18:11:49.593Z,16.83
2022-10-23T18:14:18.634Z,14.13
2022-10-23T18:16:46.425Z,12.57
2022-10-23T18:19:15.854Z,17.55
2022-10-23T18:21:43.128Z,9.02
2022-10-23T18:24:10.686Z,9.02
2022-10-23T18:26:39.949Z,6.93
2022-10-23T18:29:08.529Z,5.80
2022-10-23T18:31:37.401Z,6.10
2022-10-23T18:34:13.725Z,6.90
2022-10-23T18:36:41.574Z,6.60
2022-10-23T18:39:12.364Z,7.68
2022-10-23T18:41:41.688Z,6.82
2022-10-23T18:44:10.142Z,6.70
2022-10-23T18:46:37.703Z,7.53
2022-10-23T18:49:05.329Z,6.72
2022-10-23T18:51:36.951Z,7.95
2022-10-23T18:54:07.378Z,6.55
2022-10-23T18:56:35.928Z,7.28
2022-10-23T18:59:06.711Z,7.93
2022-10-23T19:01:34.899Z,7.38
2022-10-23T19:04:03.355Z,7.50
2022-10-23T19:06:31.723Z,6.72
2022-10-23T19:08:59.057Z,8.25
2022-10-23T19:11:27.817Z,7.13
2022-10-23T19:13:55.045Z,8.40
2022-10-23T19:16:42.087Z,8.70
2022-10-23T19:19:22.973Z,8.95
2022-10-23T19:21:50.616Z,9.57
2022-10-23T19:24:24.799Z,8.48
2022-10-23T19:26:52.252Z,9.57
2022-10-23T19:29:23.172Z,8.90
2022-10-23T19:31:50.631Z,9.20
2022-10-23T19:34:20.096Z,9.77
2022-10-23T19:36:48.617Z,9.57
2022-10-23T19:39:16.917Z,9.95
2022-10-23T19:41:44.340Z,11.93
2022-10-23T19:44:14.121Z,11.35
2022-10-23T19:46:41.331Z,10.43
2022-10-23T19:49:09.069Z,9.00
2022-10-23T19:51:37.238Z,7.32
2022-10-23T19:54:05.020Z,6.70
2022-10-23T19:56:32.149Z,7.88
2022-10-23T19:58:59.334Z,7.82
2022-10-23T20:01:26.811Z,8.18
2022-10-23T20:03:55.510Z,7.32
2022-10-23T20:06:34.559Z,9.27
2022-10-23T20:09:09.349Z,8.15
2022-10-23T20:11:39.225Z,7.22
2022-10-23T20:14:07.474Z,8.10
2022-10-23T20:16:37.705Z,6.40
2022-10-23T20:19:07.359Z,7.20
2022-10-23T20:21:38.683Z,6.50
2022-10-23T20:24:06.408Z,6.50
2022-10-23T20:26:33.546Z,5.38
2022-10-23T20:29:00.696Z,6.07
2022-10-23T20:31:28.144Z,6.85
2022-10-23T20:33:56.756Z,5.97
2022-10-23T20:36:27.367Z,5.22
2022-10-23T20:38:55.241Z,5.15
2022-10-23T20:41:26.009Z,5.00
2022-10-23T20:43:55.843Z,5.63
2022-10-23T20:46:23.440Z,4.97
2022-10-23T20:48:50.610Z,4.60
2022-10-23T20:51:20.517Z,5.05
2022-10-23T20:53:48.659Z,6.25
2022-10-23T20:56:19.225Z,4.82
2022-10-23T20:58:47.015Z,5.15
